Data for 12/09/2010

Time Sea-Level Adjusted Pressure Absolute Pressure Temperature Relative Humidity Dew Point   
(mb) (inHg) (mb) (inHg) (C) (F) (%) (C) (F)
00:05 1015 29.97 844 24.92 3.8 38.8 64 -2.5 27.5
00:10 1015 29.97 844 24.92 3.7 38.6 63 -2.7 27.2
00:15 1015 29.97 844 24.92 3.7 38.7 63 -2.7 27.2
00:20 1015 29.97 844 24.92 3.8 38.8 63 -2.6 27.2
00:25 1015 29.97 844 24.92 3.7 38.7 63 -2.7 27.2
00:30 1015 29.97 844 24.92 3.7 38.7 61 -3 26.6
00:35 1015 29.97 844 24.92 3.8 38.8 60 -3.2 26.2
00:40 1015 29.97 844 24.92 3.9 39 58 -3.6 25.5
00:45 1015 29.97 844 24.92 4 39.2 57 -3.8 25.2
00:50 1015 29.97 844 24.92 4.1 39.4 57 -3.6 25.4
00:55 1015 29.97 844 24.92 4.1 39.3 58 -3.5 25.7
01:00 1015 29.97 844 24.92 4 39.3 58 -3.4 25.9
01:05 1015 29.97 844 24.92 3.9 39 61 -2.9 26.7
01:10 1015 29.97 844 24.92 3.6 38.5 63 -2.9 26.8
01:15 1015 29.97 844 24.92 3.4 38.1 64 -2.8 27
01:20 1015 29.97 844 24.92 3.2 37.8 65 -2.6 27.2
01:25 1015 29.97 844 24.92 3.2 37.7 67 -2.4 27.7
01:30 1015 29.97 844 24.92 3.2 37.7 66 -2.6 27.4
01:35 1015 29.97 844 24.92 3.1 37.5 67 -2.5 27.6
01:40 1015 29.97 844 24.92 2.8 37 71 -2 28.4
01:45 1015 29.97 844 24.92 2.5 36.6 73 -1.8 28.8
01:50 1015 29.97 844 24.92 2.3 36.2 75 -1.6 29.1
01:55 1015 29.97 844 24.92 2.2 35.9 76 -1.6 29.2
02:00 1015 29.97 844 24.92 2.2 35.9 77 -1.5 29.3
02:05 1015 29.97 844 24.92 2.2 35.9 77 -1.5 29.3
02:10 1015 29.97 845 24.95 2.2 36 77 -1.4 29.5
02:15 1015 29.97 845 24.95 2.1 35.8 78 -1.4 29.5
02:20 1015 29.97 845 24.95 2.1 35.7 78 -1.3 29.6
02:25 1016 30 845 24.95 2 35.6 80 -1.1 30
02:30 1016 30 845 24.95 1.8 35.2 80 -1.2 29.8
02:35 1016 30 845 24.95 1.7 35.1 81 -1.2 29.8
02:40 1016 30 845 24.95 1.8 35.2 80 -1.3 29.7
02:45 1016 30 845 24.95 1.8 35.2 80 -1.3 29.6
02:50 1016 30 845 24.95 1.6 34.9 80 -1.5 29.3
02:55 1016 30 845 24.95 1.7 35 80 -1.4 29.5
03:00 1016 30 845 24.95 1.6 34.9 79 -1.7 29
03:05 1016 30 845 24.95 2 35.6 77 -1.7 29
03:10 1016 30 845 24.95 2.1 35.8 76 -1.6 29.1
03:15 1016 30 845 24.95 2.3 36.1 74 -1.8 28.7
03:20 1016 30 845 24.95 2.4 36.4 72 -2.1 28.3
03:25 1016 30 845 24.95 2.5 36.6 71 -2.2 28.1
03:30 1016 30 845 24.95 2.6 36.7 71 -2.1 28.3
03:35 1016 30 845 24.95 2.5 36.6 72 -2 28.4
03:40 1016 30 845 24.95 2.4 36.4 72 -2.2 28.1
03:45 1016 30 845 24.95 2.4 36.4 72 -2.1 28.1
03:50 1016 30 845 24.95 2.4 36.4 72 -2.1 28.3
03:55 1016 30 845 24.95 2.4 36.3 74 -1.9 28.6
04:00 1016 30 845 24.95 2.2 35.9 75 -1.8 28.7
04:05 1016 30 845 24.95 2 35.6 77 -1.7 28.9
04:10 1016 30 845 24.95 2 35.6 76 -1.8 28.8
04:15 1016 30 845 24.95 2 35.6 76 -1.8 28.7
04:20 1016 30 845 24.95 2 35.7 76 -1.8 28.7
04:25 1016 30 845 24.95 2 35.7 75 -1.9 28.6
04:30 1016 30 845 24.95 2 35.6 76 -1.8 28.7
04:35 1016 30 845 24.95 2 35.5 75 -1.9 28.5
04:40 1016 30 846 24.98 1.9 35.5 76 -1.9 28.5
04:45 1016 30 846 24.98 1.9 35.5 76 -1.9 28.6
04:50 1016 30 846 24.98 1.9 35.3 77 -1.7 28.9
04:55 1016 30 846 24.98 1.6 34.9 77 -1.9 28.5
05:00 1016 30 846 24.98 1.3 34.4 79 -1.9 28.5
05:05 1017 30.03 846 24.98 1.5 34.7 77 -2.1 28.3
05:10 1017 30.03 846 24.98 1.8 35.2 77 -1.9 28.7
05:15 1017 30.03 846 24.98 1.7 35.1 78 -1.8 28.8
05:20 1017 30.03 846 24.98 1.8 35.2 77 -1.9 28.6
05:25 1017 30.03 846 24.98 1.8 35.3 75 -2.1 28.3
05:30 1017 30.03 846 24.98 1.9 35.4 75 -2.1 28.2
05:35 1017 30.03 846 24.98 1.9 35.5 77 -1.7 29
05:40 1017 30.03 846 24.98 2.1 35.7 74 -2.2 28.1
05:45 1017 30.03 846 24.98 1.9 35.5 75 -2.1 28.2
05:50 1017 30.03 846 24.98 1.9 35.5 75 -2.1 28.2
05:55 1017 30.03 846 24.98 1.9 35.4 74 -2.2 28.1
06:00 1017 30.03 846 24.98 1.3 34.4 77 -2.2 28
06:05 1017 30.03 846 24.98 1 33.8 77 -2.5 27.5
06:10 1017 30.03 846 24.98 0.9 33.7 78 -2.5 27.6
06:15 1017 30.03 846 24.98 0.5 32.9 80 -2.6 27.3
06:20 1017 30.03 846 24.98 0.4 32.7 81 -2.4 27.6
06:25 1017 30.03 846 24.98 0.5 33 79 -2.6 27.3
06:30 1017 30.03 846 24.98 0.6 33 79 -2.7 27.1
06:35 1017 30.03 846 24.98 0.4 32.7 79 -2.8 27
06:40 1017 30.03 846 24.98 0.1 32.3 79 -3.1 26.5
06:45 1017 30.03 846 24.98 -0 32 80 -3.1 26.4
06:50 1017 30.03 846 24.98 -0.1 31.9 80 -3.2 26.3
06:55 1017 30.03 846 24.98 -0.3 31.5 81 -3.1 26.4
07:00 1017 30.03 846 24.98 -0.7 30.8 84 -3.1 26.5
07:05 1017 30.03 846 24.98 -0.3 31.5 81 -3.2 26.3
07:10 1017 30.03 846 24.98 -0 31.9 81 -3 26.6
07:15 1017 30.03 846 24.98 0 32.1 80 -3 26.5
07:20 1017 30.03 846 24.98 -0 31.9 81 -2.9 26.7
07:25 1017 30.03 846 24.98 0.4 32.8 78 -2.9 26.7
07:30 1017 30.03 846 24.98 0.4 32.8 75 -3.4 25.8
07:35 1017 30.03 846 24.98 0.6 33.1 75 -3.2 26.2
07:40 1017 30.03 846 24.98 0.3 32.6 78 -3.1 26.5
07:45 1017 30.03 846 24.98 0 32.1 79 -3.2 26.2
07:50 1017 30.03 846 24.98 -0.2 31.7 80 -3.3 26.1
07:55 1017 30.03 846 24.98 -0.1 31.9 79 -3.3 26.1
08:00 1017 30.03 846 24.98 0.2 32.3 78 -3.2 26.2
08:05 1017 30.03 846 24.98 0.4 32.7 76 -3.3 26
08:10 1017 30.03 846 24.98 0.5 32.9 77 -3.1 26.4
08:15 1017 30.03 846 24.98 0.6 33.1 73 -3.7 25.4
08:20 1017 30.03 846 24.98 0.9 33.7 72 -3.5 25.7
08:25 1017 30.03 846 24.98 0.9 33.7 72 -3.5 25.7
08:30 1017 30.03 847 25.01 1.2 34.2 68 -4 24.8
08:35 1017 30.03 846 24.98 1.6 34.9 70 -3.2 26.2
08:40 1017 30.03 847 25.01 2.1 35.7 67 -3.4 25.9
08:45 1017 30.03 847 25.01 2.2 36 62 -4.2 24.4
08:50 1017 30.03 847 25.01 2.2 36 58 -5.1 22.8
08:55 1017 30.03 847 25.01 2.9 37.2 59 -4.4 24.1
09:00 1017 30.03 847 25.01 3.4 38.1 54 -5 23
09:05 1017 30.03 847 25.01 3.7 38.6 54 -4.8 23.4
09:10 1017 30.03 847 25.01 4 39.2 52 -5 23
09:15 1017 30.03 847 25.01 4.2 39.6 49 -5.5 22.1
09:20 1017 30.03 847 25.01 4.3 39.7 49 -5.6 21.9
09:25 1017 30.03 847 25.01 4.2 39.6 47 -6.1 21.1
09:30 1018 30.06 847 25.01 4.3 39.7 47 -6.1 21
09:35 1018 30.06 847 25.01 4.6 40.2 45 -6.2 20.8
09:40 1018 30.06 847 25.01 4.6 40.2 46 -6.1 21.1
09:45 1018 30.06 847 25.01 4.6 40.4 46 -6 21.3
09:50 1017 30.03 847 25.01 4.9 40.7 45 -6.1 20.9
09:55 1017 30.03 847 25.01 4.9 40.9 45 -6.1 21.1
10:00 1017 30.03 847 25.01 5.2 41.3 43 -6.3 20.6
10:05 1017 30.03 847 25.01 5.3 41.5 43 -6.4 20.5
10:10 1017 30.03 847 25.01 5.3 41.6 43 -6.2 20.8
10:15 1017 30.03 847 25.01 5.4 41.7 42 -6.5 20.3
10:20 1017 30.03 847 25.01 5.5 41.8 44 -5.9 21.4
10:25 1018 30.06 847 25.01 5.7 42.2 42 -6.3 20.7
10:30 1018 30.06 847 25.01 5.5 42 43 -6.1 21
10:35 1018 30.06 847 25.01 5.4 41.7 42 -6.4 20.6
10:40 1018 30.06 847 25.01 5.9 42.6 41 -6.3 20.6
10:45 1018 30.06 847 25.01 6 42.8 41 -6.4 20.4
10:50 1018 30.06 847 25.01 6.4 43.5 38 -6.8 19.7
10:55 1018 30.06 847 25.01 6.4 43.5 39 -6.4 20.4
11:00 1017 30.03 847 25.01 6.3 43.3 40 -6.4 20.5
11:05 1017 30.03 847 25.01 6.1 42.9 40 -6.5 20.3
11:10 1017 30.03 847 25.01 6.8 44.2 37 -7 19.4
11:15 1017 30.03 847 25.01 6.6 43.9 38 -6.6 20.1
11:20 1017 30.03 846 24.98 6.4 43.5 38 -7 19.4
11:25 1017 30.03 846 24.98 6 42.8 38 -7.3 18.9
11:30 1017 30.03 846 24.98 6.5 43.7 37 -7.2 19.1
11:35 1017 30.03 846 24.98 7 44.5 34 -8 17.6
11:40 1017 30.03 846 24.98 6.9 44.3 35 -7.5 18.6
11:45 1017 30.03 846 24.98 6.9 44.4 35 -7.6 18.3
11:50 1017 30.03 846 24.98 7.2 45 34 -7.6 18.4
11:55 1017 30.03 846 24.98 7.8 46 34 -7.2 19
12:00 1017 30.03 846 24.98 7.6 45.6 36 -6.5 20.2
12:05 1017 30.03 846 24.98 7.4 45.2 34 -7.5 18.6
12:10 1017 30.03 846 24.98 7.6 45.7 32 -8.1 17.5
12:15 1017 30.03 846 24.98 7.9 46.2 33 -7.4 18.7
12:20 1017 30.03 846 24.98 8.1 46.6 33 -7.1 19.1
12:25 1017 30.03 846 24.98 8.2 46.7 34 -6.6 20.1
12:30 1017 30.03 846 24.98 7.8 46 33 -7.3 18.8
12:35 1016 30 846 24.98 7.3 45.1 36 -7 19.5
12:40 1016 30 845 24.95 7.2 44.9 34 -7.5 18.5
12:45 1016 30 845 24.95 7 44.6 34 -7.8 18
12:50 1016 30 845 24.95 7 44.5 34 -7.7 18.1
12:55 1016 30 845 24.95 6.9 44.3 35 -7.7 18.1
13:00 1016 30 845 24.95 6.8 44.3 35 -7.6 18.3
13:05 1016 30 845 24.95 7.4 45.2 35 -7.3 18.9
13:10 1016 30 845 24.95 7.4 45.3 33 -7.8 17.9
13:15 1016 30 845 24.95 7.5 45.4 34 -7.6 18.4
13:20 1016 30 845 24.95 7.4 45.4 33 -7.8 17.9
13:25 1016 30 845 24.95 6.9 44.3 34 -8.1 17.5
13:30 1016 30 845 24.95 6.5 43.6 35 -8 17.6
13:35 1016 30 845 24.95 6.6 43.9 34 -8.2 17.2
13:40 1016 30 845 24.95 6.7 44.1 33 -8.3 17.1
13:45 1016 30 845 24.95 6.7 44.1 34 -8.2 17.2
13:50 1016 30 845 24.95 6.6 43.8 35 -7.9 17.8
13:55 1016 30 845 24.95 6.4 43.6 34 -8.4 16.8
14:00 1016 30 845 24.95 6.1 42.9 35 -8.2 17.2
14:05 1015 29.97 845 24.95 5.9 42.6 36 -8 17.5
14:10 1015 29.97 845 24.95 5.8 42.5 36 -8 17.6
14:15 1015 29.97 845 24.95 5.7 42.3 39 -7.3 18.9
14:20 1015 29.97 845 24.95 5.7 42.2 37 -7.9 17.7
14:25 1015 29.97 845 24.95 5.6 42.1 37 -8.1 17.4
14:30 1015 29.97 845 24.95 5.4 41.7 37 -8.2 17.3
14:35 1015 29.97 845 24.95 5.4 41.8 37 -8.1 17.5
14:40 1015 29.97 844 24.92 5.3 41.6 39 -7.5 18.4
14:45 1015 29.97 844 24.92 5 40.9 42 -6.8 19.7
14:50 1015 29.97 844 24.92 4.2 39.6 46 -6.5 20.4
14:55 1015 29.97 844 24.92 3.8 38.9 44 -7.5 18.6
15:00 1015 29.97 844 24.92 4 39.1 41 -8 17.5
15:05 1015 29.97 844 24.92 4.3 39.7 42 -7.7 18.2
15:10 1015 29.97 844 24.92 4.6 40.3 41 -7.4 18.6
15:15 1015 29.97 844 24.92 4.8 40.7 39 -7.9 17.7
15:20 1015 29.97 844 24.92 5.1 41.2 39 -7.6 18.3
15:25 1015 29.97 845 24.95 5 40.9 42 -7 19.4
15:30 1015 29.97 845 24.95 4.4 39.9 43 -7 19.4
15:35 1015 29.97 845 24.95 4.3 39.8 45 -6.5 20.3
15:40 1015 29.97 844 24.92 4.3 39.7 44 -7 19.4
15:45 1015 29.97 844 24.92 4.3 39.7 40 -8.2 17.3
15:50 1015 29.97 844 24.92 4.5 40.1 40 -7.9 17.8
15:55 1015 29.97 844 24.92 4.6 40.3 39 -8.3 17
16:00 1015 29.97 844 24.92 4.9 40.8 36 -9 15.7
16:05 1015 29.97 845 24.95 5.1 41.2 37 -8.4 16.9
16:10 1015 29.97 845 24.95 5.1 41.2 36 -8.7 16.3
16:15 1015 29.97 845 24.95 5.1 41.2 37 -8.3 17
16:20 1016 30 845 24.95 4.9 40.9 38 -8.3 17
16:25 1016 30 845 24.95 4.7 40.5 40 -7.8 17.9
16:30 1016 30 845 24.95 4.5 40 41 -7.6 18.4
16:35 1016 30 845 24.95 4.1 39.3 41 -7.9 17.7
16:40 1016 30 845 24.95 3.9 39.1 42 -8 17.6
16:45 1016 30 845 24.95 3.7 38.7 45 -7.3 18.9
16:50 1016 30 845 24.95 3.6 38.4 43 -8 17.6
16:55 1016 30 845 24.95 3.5 38.3 42 -8.4 17
17:00 1016 30 845 24.95 3.6 38.5 41 -8.4 17
17:05 1016 30 845 24.95 3.8 38.9 42 -7.9 17.7
17:10 1016 30 845 24.95 3.8 38.9 42 -7.9 17.8
17:15 1016 30 845 24.95 3.7 38.7 43 -7.7 18.2
17:20 1016 30 845 24.95 3.8 38.8 42 -7.9 17.7
17:25 1016 30 845 24.95 3.7 38.6 44 -7.3 18.8
17:30 1016 30 845 24.95 3.5 38.3 44 -7.7 18.1
17:35 1016 30 845 24.95 3.6 38.5 43 -7.8 18
17:40 1016 30 845 24.95 4.1 39.4 42 -7.8 18
17:45 1016 30 845 24.95 4 39.2 43 -7.4 18.8
17:50 1016 30 845 24.95 3.6 38.5 43 -7.7 18.1
17:55 1016 30 845 24.95 3.7 38.7 44 -7.5 18.5
18:00 1015 29.97 845 24.95 3.7 38.6 46 -7 19.4
18:05 1015 29.97 844 24.92 3.4 38.1 45 -7.4 18.7
18:10 1015 29.97 844 24.92 3 37.5 49 -6.8 19.8
18:15 1015 29.97 844 24.92 2.7 36.8 48 -7.3 18.9
18:20 1015 29.97 844 24.92 2.5 36.6 49 -7.2 19
18:25 1015 29.97 844 24.92 2.3 36.2 48 -7.6 18.3
18:30 1015 29.97 844 24.92 2.3 36.1 46 -8.1 17.5
18:35 1015 29.97 844 24.92 2.3 36.2 46 -8.2 17.3
18:40 1014 29.94 844 24.92 2.4 36.4 48 -7.5 18.4
18:45 1014 29.94 844 24.92 2.1 35.9 47 -7.9 17.7
18:50 1014 29.94 843 24.89 2.3 36.1 46 -8.2 17.3
18:55 1014 29.94 843 24.89 2.6 36.7 45 -8.1 17.4
19:00 1014 29.94 843 24.89 2.9 37.3 44 -8.3 17
19:05 1014 29.94 843 24.89 2.9 37.2 44 -8.1 17.3
19:10 1014 29.94 843 24.89 2.4 36.3 44 -8.5 16.7
19:15 1014 29.94 843 24.89 2.6 36.6 44 -8.6 16.5
19:20 1014 29.94 843 24.89 2.5 36.4 44 -8.5 16.7
19:25 1014 29.94 843 24.89 2.6 36.7 42 -9.2 15.5
19:30 1014 29.94 843 24.89 2.9 37.2 41 -9 15.8
19:35 1014 29.94 843 24.89 2.8 37 43 -8.6 16.4
19:40 1014 29.94 843 24.89 2.7 36.8 44 -8.4 16.8
19:45 1014 29.94 843 24.89 2.6 36.8 43 -8.8 16.1
19:50 1014 29.94 843 24.89 2.9 37.2 43 -8.5 16.7
19:55 1014 29.94 843 24.89 2.9 37.2 43 -8.5 16.6
20:00 1013 29.91 843 24.89 3 37.4 42 -8.5 16.6
20:05 1013 29.91 843 24.89 3.3 38 40 -9 15.7
20:10 1013 29.91 843 24.89 3.7 38.7 39 -8.9 16
20:15 1013 29.91 842 24.86 3.7 38.6 42 -8.1 17.4
20:20 1013 29.91 842 24.86 3.8 38.8 40 -8.6 16.5
20:25 1013 29.91 842 24.86 3.7 38.6 42 -8.2 17.3
20:30 1013 29.91 842 24.86 3.7 38.7 42 -8.1 17.5
20:35 1013 29.91 842 24.86 3.6 38.5 41 -8.3 17.1
20:40 1013 29.91 842 24.86 3.6 38.5 41 -8.4 17
20:45 1013 29.91 842 24.86 3.5 38.3 43 -8 17.7
20:50 1013 29.91 842 24.86 3.2 37.7 43 -8.2 17.3
20:55 1013 29.91 842 24.86 3.2 37.7 40 -9.2 15.4
21:00 1013 29.91 842 24.86 3.6 38.4 38 -9.4 15.1
21:05 1013 29.91 842 24.86 3.9 39 38 -9.2 15.4
21:10 1013 29.91 842 24.86 3.9 39.1 37 -9.5 14.8
21:15 1013 29.91 842 24.86 4 39.2 38 -9.1 15.7
21:20 1013 29.91 842 24.86 3.9 39 38 -9.1 15.5
21:25 1013 29.91 842 24.86 3.9 38.9 39 -8.7 16.3
21:30 1013 29.91 842 24.86 3.6 38.4 41 -8.6 16.6
21:35 1013 29.91 842 24.86 3.4 38 41 -8.8 16.1
21:40 1013 29.91 842 24.86 3.3 37.9 40 -9.1 15.7
21:45 1013 29.91 842 24.86 3.4 38.1 40 -8.9 16
21:50 1013 29.91 842 24.86 3.1 37.6 48 -6.8 19.7
21:55 1013 29.91 842 24.86 2.4 36.3 46 -8 17.6
22:00 1013 29.91 842 24.86 1.9 35.4 49 -7.9 17.9
22:05 1013 29.91 842 24.86 1.4 34.4 47 -8.7 16.3
22:10 1013 29.91 842 24.86 1.4 34.5 48 -8.6 16.6
22:15 1013 29.91 842 24.86 1.5 34.6 48 -8.5 16.7
22:20 1012 29.88 842 24.86 1.4 34.5 46 -8.9 16
22:25 1012 29.88 842 24.86 1.5 34.7 47 -8.5 16.7
22:30 1012 29.88 841 24.83 1.2 34.2 46 -9.2 15.5
22:35 1012 29.88 841 24.83 1.3 34.4 47 -8.7 16.3
22:40 1012 29.88 841 24.83 0.9 33.7 48 -8.8 16.1
22:45 1012 29.88 841 24.83 0.9 33.5 48 -9.1 15.7
22:50 1012 29.88 841 24.83 0.9 33.5 49 -8.8 16.2
22:55 1012 29.88 841 24.83 0.6 33.1 48 -9.1 15.6
23:00 1012 29.88 841 24.83 0.4 32.6 51 -8.7 16.4
23:05 1012 29.88 841 24.83 0.4 32.8 49 -9 15.8
23:10 1011 29.85 841 24.83 0.9 33.6 46 -9.4 15
23:15 1011 29.85 841 24.83 1.4 34.6 45 -9.3 15.2
23:20 1011 29.85 840 24.81 1.3 34.3 47 -8.8 16.1
23:25 1011 29.85 840 24.81 0.7 33.3 49 -8.8 16.1
23:30 1011 29.85 840 24.81 0.7 33.2 48 -9.1 15.5
23:35 1011 29.85 840 24.81 0.8 33.5 48 -9 15.8
23:40 1011 29.85 840 24.81 1 33.8 47 -9.1 15.7
23:45 1011 29.85 840 24.81 1 33.8 46 -9.3 15.3
23:50 1011 29.85 840 24.81 1.1 33.9 46 -9.3 15.3
23:55 1011 29.85 840 24.81 0.8 33.5 49 -8.6 16.5
24:00 1011 29.85 840 24.81 0.3 32.5 48 -9.4 15.1